sensor_id;sensor_type;location;lat;lon;timestamp;pressure;altitude;pressure_sealevel;temperature;humidity
61436;BME280;47304;47.456;19.160;2023-01-29T00:00:19;100968.02;;;1.58;71.50
61436;BME280;47304;47.456;19.160;2023-01-29T00:02:47;100974.91;;;1.58;71.50
61436;BME280;47304;47.456;19.160;2023-01-29T00:05:14;100970.60;;;1.58;71.53
61436;BME280;47304;47.456;19.160;2023-01-29T00:07:54;100967.54;;;1.59;71.63
61436;BME280;47304;47.456;19.160;2023-01-29T00:10:21;100968.98;;;1.60;71.60
61436;BME280;47304;47.456;19.160;2023-01-29T00:12:47;100968.66;;;1.61;71.51
61436;BME280;47304;47.456;19.160;2023-01-29T00:15:14;100974.24;;;1.62;71.49
61436;BME280;47304;47.456;19.160;2023-01-29T00:17:41;100977.01;;;1.62;71.39
61436;BME280;47304;47.456;19.160;2023-01-29T00:20:08;100982.29;;;1.61;71.27
61436;BME280;47304;47.456;19.160;2023-01-29T00:22:34;100977.88;;;1.59;71.40
61436;BME280;47304;47.456;19.160;2023-01-29T00:25:01;100980.51;;;1.60;71.43
61436;BME280;47304;47.456;19.160;2023-01-29T00:27:28;100982.28;;;1.57;71.25
61436;BME280;47304;47.456;19.160;2023-01-29T00:29:54;100980.18;;;1.52;71.21
61436;BME280;47304;47.456;19.160;2023-01-29T00:32:21;100986.61;;;1.49;71.34
61436;BME280;47304;47.456;19.160;2023-01-29T00:34:47;100989.30;;;1.48;71.36
61436;BME280;47304;47.456;19.160;2023-01-29T00:37:14;100987.52;;;1.47;71.44
61436;BME280;47304;47.456;19.160;2023-01-29T00:39:40;100990.34;;;1.48;71.55
61436;BME280;47304;47.456;19.160;2023-01-29T00:42:13;100992.09;;;1.49;71.44
61436;BME280;47304;47.456;19.160;2023-01-29T00:44:40;100999.82;;;1.48;71.45
61436;BME280;47304;47.456;19.160;2023-01-29T00:47:06;100994.08;;;1.47;71.38
61436;BME280;47304;47.456;19.160;2023-01-29T00:49:33;100994.08;;;1.47;71.36
61436;BME280;47304;47.456;19.160;2023-01-29T00:51:59;100996.20;;;1.44;71.27
61436;BME280;47304;47.456;19.160;2023-01-29T00:54:26;100997.63;;;1.41;71.33
61436;BME280;47304;47.456;19.160;2023-01-29T00:56:52;100995.30;;;1.39;71.38
61436;BME280;47304;47.456;19.160;2023-01-29T00:59:19;100999.88;;;1.38;71.30
61436;BME280;47304;47.456;19.160;2023-01-29T01:01:45;101005.40;;;1.38;71.29
61436;BME280;47304;47.456;19.160;2023-01-29T01:04:12;101010.66;;;1.36;71.15
61436;BME280;47304;47.456;19.160;2023-01-29T01:06:40;101006.59;;;1.33;71.17
61436;BME280;47304;47.456;19.160;2023-01-29T01:09:08;101008.10;;;1.32;71.33
61436;BME280;47304;47.456;19.160;2023-01-29T01:11:35;101005.95;;;1.28;71.29
61436;BME280;47304;47.456;19.160;2023-01-29T01:14:01;101006.13;;;1.20;71.36
61436;BME280;47304;47.456;19.160;2023-01-29T01:16:27;101001.83;;;1.09;71.27
61436;BME280;47304;47.456;19.160;2023-01-29T01:18:54;101004.25;;;0.99;71.37
61436;BME280;47304;47.456;19.160;2023-01-29T01:21:21;101006.45;;;0.91;71.43
61436;BME280;47304;47.456;19.160;2023-01-29T01:23:47;101006.72;;;0.82;71.60
61436;BME280;47304;47.456;19.160;2023-01-29T01:26:14;101006.42;;;0.76;71.71
61436;BME280;47304;47.456;19.160;2023-01-29T01:28:40;101009.09;;;0.71;71.81
61436;BME280;47304;47.456;19.160;2023-01-29T01:31:11;101007.27;;;0.65;71.98
61436;BME280;47304;47.456;19.160;2023-01-29T01:33:39;101012.88;;;0.60;72.18
61436;BME280;47304;47.456;19.160;2023-01-29T01:36:06;101013.45;;;0.58;72.25
61436;BME280;47304;47.456;19.160;2023-01-29T01:38:33;101022.19;;;0.56;72.44
61436;BME280;47304;47.456;19.160;2023-01-29T01:41:00;101021.65;;;0.53;72.32
61436;BME280;47304;47.456;19.160;2023-01-29T01:43:26;101023.83;;;0.48;72.43
61436;BME280;47304;47.456;19.160;2023-01-29T01:45:53;101027.01;;;0.46;72.43
61436;BME280;47304;47.456;19.160;2023-01-29T01:48:24;101027.42;;;0.44;72.56
61436;BME280;47304;47.456;19.160;2023-01-29T01:53:25;101029.81;;;0.33;72.63
61436;BME280;47304;47.456;19.160;2023-01-29T01:55:57;101030.39;;;0.28;72.66
61436;BME280;47304;47.456;19.160;2023-01-29T01:58:28;101028.16;;;0.21;72.71
61436;BME280;47304;47.456;19.160;2023-01-29T02:00:57;101024.48;;;0.17;72.93
61436;BME280;47304;47.456;19.160;2023-01-29T02:03:25;101025.77;;;0.11;72.99
61436;BME280;47304;47.456;19.160;2023-01-29T02:05:54;101025.59;;;0.08;73.10
61436;BME280;47304;47.456;19.160;2023-01-29T02:08:30;101024.51;;;0.07;73.22
61436;BME280;47304;47.456;19.160;2023-01-29T02:10:57;101028.75;;;0.06;73.35
61436;BME280;47304;47.456;19.160;2023-01-29T02:13:25;101023.20;;;0.05;73.36
61436;BME280;47304;47.456;19.160;2023-01-29T02:15:52;101030.58;;;0.02;73.30
61436;BME280;47304;47.456;19.160;2023-01-29T02:18:20;101031.36;;;-0.03;73.37
61436;BME280;47304;47.456;19.160;2023-01-29T02:26:58;101032.29;;;-0.12;73.65
61436;BME280;47304;47.456;19.160;2023-01-29T02:29:33;101037.56;;;-0.13;73.81
61436;BME280;47304;47.456;19.160;2023-01-29T02:32:31;101035.92;;;-0.15;73.86
61436;BME280;47304;47.456;19.160;2023-01-29T02:35:13;101041.77;;;-0.18;73.79
61436;BME280;47304;47.456;19.160;2023-01-29T02:40:44;101044.05;;;-0.27;73.85
61436;BME280;47304;47.456;19.160;2023-01-29T02:43:19;101045.80;;;-0.33;73.88
61436;BME280;47304;47.456;19.160;2023-01-29T02:52:08;101049.16;;;-0.44;74.28
61436;BME280;47304;47.456;19.160;2023-01-29T02:57:20;101058.82;;;-0.47;74.52
61436;BME280;47304;47.456;19.160;2023-01-29T02:59:58;101066.04;;;-0.47;74.47
61436;BME280;47304;47.456;19.160;2023-01-29T03:02:32;101063.35;;;-0.46;74.53
61436;BME280;47304;47.456;19.160;2023-01-29T03:05:03;101065.66;;;-0.44;74.41
61436;BME280;47304;47.456;19.160;2023-01-29T03:07:37;101070.38;;;-0.47;74.56
61436;BME280;47304;47.456;19.160;2023-01-29T03:10:25;101071.55;;;-0.47;74.53
61436;BME280;47304;47.456;19.160;2023-01-29T03:12:58;101074.09;;;-0.48;74.42
61436;BME280;47304;47.456;19.160;2023-01-29T03:15:33;101077.33;;;-0.49;74.45
61436;BME280;47304;47.456;19.160;2023-01-29T03:18:07;101075.89;;;-0.49;74.50
61436;BME280;47304;47.456;19.160;2023-01-29T03:20:40;101071.89;;;-0.50;74.54
61436;BME280;47304;47.456;19.160;2023-01-29T03:23:16;101075.18;;;-0.50;74.45
61436;BME280;47304;47.456;19.160;2023-01-29T03:25:44;101074.31;;;-0.50;74.59
61436;BME280;47304;47.456;19.160;2023-01-29T03:28:14;101079.30;;;-0.50;74.42
61436;BME280;47304;47.456;19.160;2023-01-29T03:31:16;101083.73;;;-0.51;74.53
61436;BME280;47304;47.456;19.160;2023-01-29T03:33:41;101087.56;;;-0.50;74.65
61436;BME280;47304;47.456;19.160;2023-01-29T03:36:13;101086.50;;;-0.50;74.59
61436;BME280;47304;47.456;19.160;2023-01-29T03:38:43;101087.21;;;-0.50;74.67
61436;BME280;47304;47.456;19.160;2023-01-29T03:41:19;101087.86;;;-0.48;74.84
61436;BME280;47304;47.456;19.160;2023-01-29T03:46:31;101087.75;;;-0.40;74.74
61436;BME280;47304;47.456;19.160;2023-01-29T03:49:10;101088.37;;;-0.35;74.84
61436;BME280;47304;47.456;19.160;2023-01-29T03:54:38;101090.59;;;-0.23;74.55
61436;BME280;47304;47.456;19.160;2023-01-29T04:00:33;101092.95;;;-0.11;74.52
61436;BME280;47304;47.456;19.160;2023-01-29T04:03:17;101090.07;;;-0.07;74.41
61436;BME280;47304;47.456;19.160;2023-01-29T04:05:55;101090.81;;;-0.06;74.16
61436;BME280;47304;47.456;19.160;2023-01-29T04:08:26;101085.42;;;-0.07;74.04
61436;BME280;47304;47.456;19.160;2023-01-29T04:10:56;101089.94;;;-0.06;74.08
61436;BME280;47304;47.456;19.160;2023-01-29T04:13:26;101089.23;;;-0.06;73.98
61436;BME280;47304;47.456;19.160;2023-01-29T04:15:55;101093.11;;;-0.05;74.11
61436;BME280;47304;47.456;19.160;2023-01-29T04:18:23;101089.67;;;-0.02;74.18
61436;BME280;47304;47.456;19.160;2023-01-29T04:20:50;101087.70;;;0.03;74.25
61436;BME280;47304;47.456;19.160;2023-01-29T04:23:23;101088.97;;;0.08;74.25
61436;BME280;47304;47.456;19.160;2023-01-29T04:28:44;101085.66;;;0.17;73.91
61436;BME280;47304;47.456;19.160;2023-01-29T04:31:16;101085.95;;;0.19;73.83
61436;BME280;47304;47.456;19.160;2023-01-29T04:39:21;101078.41;;;0.27;73.69
61436;BME280;47304;47.456;19.160;2023-01-29T04:41:54;101084.58;;;0.29;73.56
61436;BME280;47304;47.456;19.160;2023-01-29T04:44:31;101085.00;;;0.30;73.61
61436;BME280;47304;47.456;19.160;2023-01-29T04:47:20;101089.52;;;0.31;73.48
61436;BME280;47304;47.456;19.160;2023-01-29T04:50:16;101087.02;;;0.30;73.36
61436;BME280;47304;47.456;19.160;2023-01-29T04:58:13;101085.39;;;0.28;73.53
61436;BME280;47304;47.456;19.160;2023-01-29T05:00:45;101085.13;;;0.30;73.55
61436;BME280;47304;47.456;19.160;2023-01-29T05:03:15;101089.88;;;0.32;73.49
61436;BME280;47304;47.456;19.160;2023-01-29T05:05:45;101090.09;;;0.32;73.31
61436;BME280;47304;47.456;19.160;2023-01-29T05:08:15;101089.17;;;0.35;73.45
61436;BME280;47304;47.456;19.160;2023-01-29T05:10:44;101086.79;;;0.39;73.48
61436;BME280;47304;47.456;19.160;2023-01-29T05:13:13;101079.48;;;0.40;73.26
61436;BME280;47304;47.456;19.160;2023-01-29T05:15:47;101079.95;;;0.43;73.17
61436;BME280;47304;47.456;19.160;2023-01-29T05:18:14;101088.20;;;0.42;72.85
61436;BME280;47304;47.456;19.160;2023-01-29T05:20:42;101090.24;;;0.42;72.82
61436;BME280;47304;47.456;19.160;2023-01-29T05:23:17;101091.63;;;0.42;72.51
61436;BME280;47304;47.456;19.160;2023-01-29T05:25:45;101091.77;;;0.41;72.19
61436;BME280;47304;47.456;19.160;2023-01-29T05:28:12;101091.84;;;0.39;72.02
61436;BME280;47304;47.456;19.160;2023-01-29T05:30:39;101092.93;;;0.41;71.94
61436;BME280;47304;47.456;19.160;2023-01-29T05:33:15;101083.50;;;0.38;71.78
61436;BME280;47304;47.456;19.160;2023-01-29T05:35:42;101079.01;;;0.38;71.93
61436;BME280;47304;47.456;19.160;2023-01-29T05:38:08;101079.94;;;0.40;72.10
61436;BME280;47304;47.456;19.160;2023-01-29T05:40:36;101079.75;;;0.39;71.64
61436;BME280;47304;47.456;19.160;2023-01-29T05:43:03;101082.56;;;0.37;71.61
61436;BME280;47304;47.456;19.160;2023-01-29T05:45:30;101083.78;;;0.37;71.73
61436;BME280;47304;47.456;19.160;2023-01-29T05:47:58;101087.70;;;0.40;72.08
61436;BME280;47304;47.456;19.160;2023-01-29T05:50:26;101086.51;;;0.43;72.21
61436;BME280;47304;47.456;19.160;2023-01-29T05:52:57;101080.09;;;0.42;71.46
61436;BME280;47304;47.456;19.160;2023-01-29T05:55:24;101080.23;;;0.42;71.43
61436;BME280;47304;47.456;19.160;2023-01-29T05:57:51;101087.32;;;0.42;71.51
61436;BME280;47304;47.456;19.160;2023-01-29T06:00:18;101079.83;;;0.44;71.72
61436;BME280;47304;47.456;19.160;2023-01-29T06:02:44;101085.39;;;0.48;71.78
61436;BME280;47304;47.456;19.160;2023-01-29T06:05:11;101088.38;;;0.53;71.69
61436;BME280;47304;47.456;19.160;2023-01-29T06:07:38;101089.38;;;0.55;71.76
61436;BME280;47304;47.456;19.160;2023-01-29T06:10:05;101089.03;;;0.59;71.60
61436;BME280;47304;47.456;19.160;2023-01-29T06:12:31;101092.92;;;0.60;71.36
61436;BME280;47304;47.456;19.160;2023-01-29T06:14:58;101096.36;;;0.64;71.15
61436;BME280;47304;47.456;19.160;2023-01-29T06:17:24;101100.45;;;0.66;70.85
61436;BME280;47304;47.456;19.160;2023-01-29T06:19:51;101100.10;;;0.66;70.36
61436;BME280;47304;47.456;19.160;2023-01-29T06:22:17;101102.54;;;0.67;70.18
61436;BME280;47304;47.456;19.160;2023-01-29T06:24:44;101105.67;;;0.67;70.32
61436;BME280;47304;47.456;19.160;2023-01-29T06:27:10;101114.65;;;0.67;70.27
61436;BME280;47304;47.456;19.160;2023-01-29T06:29:37;101116.77;;;0.68;70.31
61436;BME280;47304;47.456;19.160;2023-01-29T06:32:03;101123.89;;;0.72;70.24
61436;BME280;47304;47.456;19.160;2023-01-29T06:34:30;101125.20;;;0.74;70.20
61436;BME280;47304;47.456;19.160;2023-01-29T06:36:57;101131.60;;;0.74;69.62
61436;BME280;47304;47.456;19.160;2023-01-29T06:39:23;101140.28;;;0.72;69.58
61436;BME280;47304;47.456;19.160;2023-01-29T06:41:50;101143.02;;;0.72;69.33
61436;BME280;47304;47.456;19.160;2023-01-29T06:44:16;101146.09;;;0.72;69.23
61436;BME280;47304;47.456;19.160;2023-01-29T06:46:43;101146.76;;;0.71;69.06
61436;BME280;47304;47.456;19.160;2023-01-29T06:49:09;101148.76;;;0.70;68.83
61436;BME280;47304;47.456;19.160;2023-01-29T06:51:36;101155.23;;;0.68;68.89
61436;BME280;47304;47.456;19.160;2023-01-29T06:54:02;101154.11;;;0.67;68.93
61436;BME280;47304;47.456;19.160;2023-01-29T06:56:29;101154.17;;;0.68;69.17
61436;BME280;47304;47.456;19.160;2023-01-29T06:58:56;101161.31;;;0.69;68.81
61436;BME280;47304;47.456;19.160;2023-01-29T07:01:22;101157.73;;;0.67;68.62
61436;BME280;47304;47.456;19.160;2023-01-29T07:04:01;101155.71;;;0.65;69.02
61436;BME280;47304;47.456;19.160;2023-01-29T07:06:28;101156.15;;;0.63;69.00
61436;BME280;47304;47.456;19.160;2023-01-29T07:08:55;101160.98;;;0.63;69.43
61436;BME280;47304;47.456;19.160;2023-01-29T07:11:22;101158.31;;;0.65;69.37
61436;BME280;47304;47.456;19.160;2023-01-29T07:13:49;101156.42;;;0.65;69.41
61436;BME280;47304;47.456;19.160;2023-01-29T07:16:15;101154.26;;;0.66;69.40
61436;BME280;47304;47.456;19.160;2023-01-29T07:18:42;101149.39;;;0.69;69.38
61436;BME280;47304;47.456;19.160;2023-01-29T07:21:09;101149.24;;;0.69;69.31
61436;BME280;47304;47.456;19.160;2023-01-29T07:23:35;101150.48;;;0.70;69.52
61436;BME280;47304;47.456;19.160;2023-01-29T07:26:04;101144.30;;;0.70;69.46
61436;BME280;47304;47.456;19.160;2023-01-29T07:28:35;101142.73;;;0.70;69.42
61436;BME280;47304;47.456;19.160;2023-01-29T07:31:03;101139.16;;;0.68;69.47
61436;BME280;47304;47.456;19.160;2023-01-29T07:33:30;101126.26;;;0.65;69.43
61436;BME280;47304;47.456;19.160;2023-01-29T07:35:57;101128.65;;;0.65;69.54
61436;BME280;47304;47.456;19.160;2023-01-29T07:38:24;101127.63;;;0.68;69.60
61436;BME280;47304;47.456;19.160;2023-01-29T07:40:51;101126.20;;;0.74;69.82
61436;BME280;47304;47.456;19.160;2023-01-29T07:43:18;101129.80;;;0.77;69.62
61436;BME280;47304;47.456;19.160;2023-01-29T07:45:45;101131.05;;;0.77;69.31
61436;BME280;47304;47.456;19.160;2023-01-29T07:48:12;101125.97;;;0.76;69.26
61436;BME280;47304;47.456;19.160;2023-01-29T07:50:39;101130.27;;;0.73;69.16
61436;BME280;47304;47.456;19.160;2023-01-29T07:53:06;101126.46;;;0.69;69.28
61436;BME280;47304;47.456;19.160;2023-01-29T07:55:35;101117.73;;;0.67;69.31
61436;BME280;47304;47.456;19.160;2023-01-29T07:58:02;101115.99;;;0.67;69.53
61436;BME280;47304;47.456;19.160;2023-01-29T08:00:30;101121.02;;;0.70;69.65
61436;BME280;47304;47.456;19.160;2023-01-29T08:03:04;101131.20;;;0.74;69.50
61436;BME280;47304;47.456;19.160;2023-01-29T08:05:31;101130.14;;;0.77;69.28
61436;BME280;47304;47.456;19.160;2023-01-29T08:07:58;101127.34;;;0.79;69.48
61436;BME280;47304;47.456;19.160;2023-01-29T08:10:34;101127.98;;;0.82;69.20
61436;BME280;47304;47.456;19.160;2023-01-29T08:13:01;101124.05;;;0.83;68.79
61436;BME280;47304;47.456;19.160;2023-01-29T08:15:29;101124.84;;;0.85;68.92
61436;BME280;47304;47.456;19.160;2023-01-29T08:17:56;101127.33;;;0.86;68.84
61436;BME280;47304;47.456;19.160;2023-01-29T08:20:24;101129.07;;;0.90;69.05
61436;BME280;47304;47.456;19.160;2023-01-29T08:23:02;101128.68;;;0.92;68.59
61436;BME280;47304;47.456;19.160;2023-01-29T08:25:29;101130.95;;;0.89;68.44
61436;BME280;47304;47.456;19.160;2023-01-29T08:27:57;101134.59;;;0.89;68.53
61436;BME280;47304;47.456;19.160;2023-01-29T08:30:28;101139.09;;;0.93;68.65
61436;BME280;47304;47.456;19.160;2023-01-29T08:32:55;101142.18;;;0.97;68.58
61436;BME280;47304;47.456;19.160;2023-01-29T08:35:21;101146.60;;;0.98;68.55
61436;BME280;47304;47.456;19.160;2023-01-29T08:37:52;101147.98;;;0.98;68.19
61436;BME280;47304;47.456;19.160;2023-01-29T08:40:19;101148.42;;;0.97;67.85
61436;BME280;47304;47.456;19.160;2023-01-29T08:42:46;101153.85;;;0.96;67.80
61436;BME280;47304;47.456;19.160;2023-01-29T08:45:13;101157.06;;;0.90;67.27
61436;BME280;47304;47.456;19.160;2023-01-29T08:47:47;101164.55;;;0.85;67.55
61436;BME280;47304;47.456;19.160;2023-01-29T08:50:15;101173.21;;;0.83;67.70
61436;BME280;47304;47.456;19.160;2023-01-29T08:52:42;101175.75;;;0.78;67.27
61436;BME280;47304;47.456;19.160;2023-01-29T08:55:09;101180.16;;;0.73;67.52
61436;BME280;47304;47.456;19.160;2023-01-29T08:57:37;101186.47;;;0.75;67.73
61436;BME280;47304;47.456;19.160;2023-01-29T09:00:06;101186.02;;;0.76;67.59
61436;BME280;47304;47.456;19.160;2023-01-29T09:02:33;101186.14;;;0.75;67.49
61436;BME280;47304;47.456;19.160;2023-01-29T09:05:00;101184.91;;;0.72;67.41
61436;BME280;47304;47.456;19.160;2023-01-29T09:07:28;101185.66;;;0.70;67.40
61436;BME280;47304;47.456;19.160;2023-01-29T09:09:54;101186.57;;;0.68;67.72
61436;BME280;47304;47.456;19.160;2023-01-29T09:12:21;101186.59;;;0.71;67.88
61436;BME280;47304;47.456;19.160;2023-01-29T09:14:48;101190.70;;;0.74;67.73
61436;BME280;47304;47.456;19.160;2023-01-29T09:17:14;101193.44;;;0.77;67.53
61436;BME280;47304;47.456;19.160;2023-01-29T09:19:41;101187.22;;;0.80;67.52
61436;BME280;47304;47.456;19.160;2023-01-29T09:22:07;101185.52;;;0.84;67.52
61436;BME280;47304;47.456;19.160;2023-01-29T09:24:36;101189.69;;;0.87;67.35
61436;BME280;47304;47.456;19.160;2023-01-29T09:27:03;101191.65;;;0.89;66.61
61436;BME280;47304;47.456;19.160;2023-01-29T09:29:29;101192.73;;;0.86;66.24
61436;BME280;47304;47.456;19.160;2023-01-29T09:31:56;101190.18;;;0.84;66.31
61436;BME280;47304;47.456;19.160;2023-01-29T09:34:22;101194.40;;;0.85;66.43
61436;BME280;47304;47.456;19.160;2023-01-29T09:36:51;101188.55;;;0.86;66.34
61436;BME280;47304;47.456;19.160;2023-01-29T09:39:17;101190.34;;;0.87;66.21
61436;BME280;47304;47.456;19.160;2023-01-29T09:41:54;101191.30;;;0.89;66.09
61436;BME280;47304;47.456;19.160;2023-01-29T09:44:37;101194.45;;;0.89;65.83
61436;BME280;47304;47.456;19.160;2023-01-29T09:47:13;101194.67;;;0.90;65.88
61436;BME280;47304;47.456;19.160;2023-01-29T09:49:55;101198.35;;;0.88;65.72
61436;BME280;47304;47.456;19.160;2023-01-29T09:52:29;101197.59;;;0.87;65.87
61436;BME280;47304;47.456;19.160;2023-01-29T09:57:44;101198.48;;;0.87;65.61
61436;BME280;47304;47.456;19.160;2023-01-29T10:00:19;101198.46;;;0.87;65.43
61436;BME280;47304;47.456;19.160;2023-01-29T10:16:52;101198.90;;;0.99;65.17
61436;BME280;47304;47.456;19.160;2023-01-29T10:25:05;101194.35;;;1.11;64.25
61436;BME280;47304;47.456;19.160;2023-01-29T10:27:39;101189.73;;;1.16;64.03
61436;BME280;47304;47.456;19.160;2023-01-29T10:30:19;101192.02;;;1.20;63.45
61436;BME280;47304;47.456;19.160;2023-01-29T10:32:47;101188.83;;;1.21;63.03
61436;BME280;47304;47.456;19.160;2023-01-29T10:35:22;101189.73;;;1.22;63.40
61436;BME280;47304;47.456;19.160;2023-01-29T10:37:51;101193.44;;;1.28;63.09
61436;BME280;47304;47.456;19.160;2023-01-29T10:40:37;101192.48;;;1.30;63.17
61436;BME280;47304;47.456;19.160;2023-01-29T10:43:21;101197.25;;;1.28;63.09
61436;BME280;47304;47.456;19.160;2023-01-29T10:52:20;101185.16;;;1.14;62.43
61436;BME280;47304;47.456;19.160;2023-01-29T10:58:06;101176.38;;;1.04;62.57
61436;BME280;47304;47.456;19.160;2023-01-29T11:00:27;101178.61;;;1.00;62.34
61436;BME280;47304;47.456;19.160;2023-01-29T11:02:55;101171.83;;;0.99;62.61
61436;BME280;47304;47.456;19.160;2023-01-29T11:05:29;101161.38;;;0.98;62.29
61436;BME280;47304;47.456;19.160;2023-01-29T11:08:07;101155.23;;;0.96;62.37
61436;BME280;47304;47.456;19.160;2023-01-29T11:13:16;101156.45;;;0.96;62.38
61436;BME280;47304;47.456;19.160;2023-01-29T11:15:43;101155.38;;;0.95;62.35
61436;BME280;47304;47.456;19.160;2023-01-29T11:18:12;101152.70;;;0.93;62.26
61436;BME280;47304;47.456;19.160;2023-01-29T11:20:44;101149.50;;;0.91;62.17
61436;BME280;47304;47.456;19.160;2023-01-29T11:23:31;101144.66;;;0.88;62.34
61436;BME280;47304;47.456;19.160;2023-01-29T11:25:59;101141.17;;;0.90;62.52
61436;BME280;47304;47.456;19.160;2023-01-29T11:28:40;101138.36;;;0.89;61.99
61436;BME280;47304;47.456;19.160;2023-01-29T11:31:20;101133.15;;;0.88;62.31
61436;BME280;47304;47.456;19.160;2023-01-29T11:33:49;101135.19;;;0.95;62.21
61436;BME280;47304;47.456;19.160;2023-01-29T11:36:27;101134.92;;;1.00;62.62
61436;BME280;47304;47.456;19.160;2023-01-29T11:39:24;101129.64;;;1.04;61.87
61436;BME280;47304;47.456;19.160;2023-01-29T11:41:59;101124.48;;;1.08;61.73
61436;BME280;47304;47.456;19.160;2023-01-29T11:47:17;101115.13;;;1.11;60.81
61436;BME280;47304;47.456;19.160;2023-01-29T11:49:47;101110.52;;;1.12;60.84
61436;BME280;47304;47.456;19.160;2023-01-29T11:52:17;101106.46;;;1.11;60.06
61436;BME280;47304;47.456;19.160;2023-01-29T11:59:51;101083.84;;;1.10;59.80
61436;BME280;47304;47.456;19.160;2023-01-29T12:04:53;101084.43;;;1.15;59.05
61436;BME280;47304;47.456;19.160;2023-01-29T12:07:21;101089.13;;;1.12;59.35
61436;BME280;47304;47.456;19.160;2023-01-29T12:09:58;101084.30;;;1.13;58.85
61436;BME280;47304;47.456;19.160;2023-01-29T12:17:46;101081.42;;;1.06;58.89
61436;BME280;47304;47.456;19.160;2023-01-29T12:20:22;101078.71;;;1.07;59.53
61436;BME280;47304;47.456;19.160;2023-01-29T12:23:00;101079.52;;;1.06;58.53
61436;BME280;47304;47.456;19.160;2023-01-29T12:25:46;101076.46;;;1.04;59.10
61436;BME280;47304;47.456;19.160;2023-01-29T12:31:39;101075.92;;;1.11;58.71
61436;BME280;47304;47.456;19.160;2023-01-29T12:34:04;101081.52;;;1.09;58.00
61436;BME280;47304;47.456;19.160;2023-01-29T12:36:47;101077.63;;;1.06;58.63
61436;BME280;47304;47.456;19.160;2023-01-29T12:39:16;101076.15;;;1.04;57.23
61436;BME280;47304;47.456;19.160;2023-01-29T12:46:55;101075.77;;;1.04;57.84
61436;BME280;47304;47.456;19.160;2023-01-29T12:49:28;101076.01;;;1.05;58.33
61436;BME280;47304;47.456;19.160;2023-01-29T12:52:09;101074.81;;;1.09;58.11
61436;BME280;47304;47.456;19.160;2023-01-29T12:54:40;101069.87;;;1.11;58.10
61436;BME280;47304;47.456;19.160;2023-01-29T12:57:22;101066.92;;;1.14;57.80
61436;BME280;47304;47.456;19.160;2023-01-29T12:59:54;101067.00;;;1.12;57.16
61436;BME280;47304;47.456;19.160;2023-01-29T13:02:31;101067.77;;;1.09;57.07
61436;BME280;47304;47.456;19.160;2023-01-29T13:05:33;101070.79;;;1.08;57.12
61436;BME280;47304;47.456;19.160;2023-01-29T13:08:06;101060.70;;;1.10;57.50
61436;BME280;47304;47.456;19.160;2023-01-29T13:10:37;101054.09;;;1.12;57.10
61436;BME280;47304;47.456;19.160;2023-01-29T13:13:32;101047.36;;;1.12;57.33
61436;BME280;47304;47.456;19.160;2023-01-29T13:16:02;101038.32;;;1.15;57.48
61436;BME280;47304;47.456;19.160;2023-01-29T13:21:11;101033.95;;;1.13;56.75
61436;BME280;47304;47.456;19.160;2023-01-29T13:23:42;101030.64;;;1.13;57.09
61436;BME280;47304;47.456;19.160;2023-01-29T13:26:10;101025.27;;;1.16;57.03
61436;BME280;47304;47.456;19.160;2023-01-29T13:28:39;101020.94;;;1.19;56.58
61436;BME280;47304;47.456;19.160;2023-01-29T13:31:31;101015.43;;;1.20;55.95
61436;BME280;47304;47.456;19.160;2023-01-29T13:36:49;101005.16;;;1.18;55.97
61436;BME280;47304;47.456;19.160;2023-01-29T13:39:27;101003.87;;;1.23;56.38
61436;BME280;47304;47.456;19.160;2023-01-29T13:41:56;100999.71;;;1.34;56.40
61436;BME280;47304;47.456;19.160;2023-01-29T13:44:27;101002.88;;;1.58;56.38
61436;BME280;47304;47.456;19.160;2023-01-29T13:47:01;101002.15;;;2.27;54.88
61436;BME280;47304;47.456;19.160;2023-01-29T13:52:40;101003.70;;;3.70;52.73
61436;BME280;47304;47.456;19.160;2023-01-29T14:08:03;100986.45;;;3.39;49.79
61436;BME280;47304;47.456;19.160;2023-01-29T14:10:32;100991.02;;;3.27;50.32
61436;BME280;47304;47.456;19.160;2023-01-29T14:15:34;101003.26;;;2.87;50.01
61436;BME280;47304;47.456;19.160;2023-01-29T14:25:55;101015.23;;;2.14;50.92
61436;BME280;47304;47.456;19.160;2023-01-29T14:28:24;101013.85;;;2.02;51.40
61436;BME280;47304;47.456;19.160;2023-01-29T14:30:54;101015.47;;;1.92;51.92
61436;BME280;47304;47.456;19.160;2023-01-29T14:33:32;101018.45;;;1.81;52.41
61436;BME280;47304;47.456;19.160;2023-01-29T14:36:03;101021.19;;;1.73;52.61
61436;BME280;47304;47.456;19.160;2023-01-29T14:38:32;101024.58;;;1.60;52.90
61436;BME280;47304;47.456;19.160;2023-01-29T14:41:25;101019.67;;;1.51;53.52
61436;BME280;47304;47.456;19.160;2023-01-29T14:43:50;101031.33;;;1.38;53.36
61436;BME280;47304;47.456;19.160;2023-01-29T14:48:59;101029.13;;;1.17;54.12
61436;BME280;47304;47.456;19.160;2023-01-29T14:51:31;101027.44;;;1.11;54.12
61436;BME280;47304;47.456;19.160;2023-01-29T14:56:40;101034.42;;;0.81;54.68
61436;BME280;47304;47.456;19.160;2023-01-29T14:59:24;101037.73;;;0.64;55.40
61436;BME280;47304;47.456;19.160;2023-01-29T15:01:54;101035.45;;;0.50;55.51
61436;BME280;47304;47.456;19.160;2023-01-29T15:04:41;101040.45;;;0.36;55.65
61436;BME280;47304;47.456;19.160;2023-01-29T15:09:45;101041.63;;;0.05;56.44
61436;BME280;47304;47.456;19.160;2023-01-29T15:17:41;101040.77;;;-0.40;57.47
61436;BME280;47304;47.456;19.160;2023-01-29T15:20:34;101042.92;;;-0.48;57.75
61436;BME280;47304;47.456;19.160;2023-01-29T15:23:02;101038.74;;;-0.55;58.07
61436;BME280;47304;47.456;19.160;2023-01-29T15:25:36;101035.77;;;-0.62;58.16
61436;BME280;47304;47.456;19.160;2023-01-29T15:28:12;101034.67;;;-0.70;58.40
61436;BME280;47304;47.456;19.160;2023-01-29T15:30:39;101029.06;;;-0.78;58.62
61436;BME280;47304;47.456;19.160;2023-01-29T15:33:08;101027.86;;;-0.84;58.87